createdAt,value
2019-03-22T00:00:55.468Z,15.22
2019-03-22T00:02:27.070Z,15.22
2019-03-22T00:03:58.699Z,15.21
2019-03-22T00:05:30.640Z,15.32
2019-03-22T00:07:02.206Z,15.31
2019-03-22T00:08:33.837Z,14.99
2019-03-22T00:10:05.545Z,16.07
2019-03-22T00:11:37.152Z,16.09
2019-03-22T00:13:08.872Z,16.54
2019-03-22T00:14:40.367Z,16.43
2019-03-22T00:16:12.081Z,16.46
2019-03-22T00:17:43.759Z,16.22
2019-03-22T00:19:15.345Z,16.31
2019-03-22T00:20:46.927Z,16.88
2019-03-22T00:22:18.657Z,16.83
2019-03-22T00:23:50.428Z,17.34
2019-03-22T00:25:22.013Z,17.09
2019-03-22T00:26:53.630Z,17.24
2019-03-22T00:28:25.230Z,17.07
2019-03-22T00:29:56.843Z,17.42
2019-03-22T00:31:28.458Z,17.29
2019-03-22T00:33:00.090Z,17.80
2019-03-22T00:34:31.690Z,18.15
2019-03-22T00:36:03.320Z,18.98
2019-03-22T00:37:35.094Z,18.31
2019-03-22T00:39:06.762Z,18.64
2019-03-22T00:40:38.366Z,18.98
2019-03-22T00:42:09.997Z,19.55
2019-03-22T00:43:41.582Z,19.51
2019-03-22T00:45:13.747Z,19.63
2019-03-22T00:46:45.367Z,19.43
2019-03-22T00:48:17.145Z,20.13
2019-03-22T00:49:48.753Z,19.81
2019-03-22T00:51:20.363Z,20.29
2019-03-22T00:52:51.941Z,20.22
2019-03-22T00:54:22.077Z,21.09
2019-03-22T00:55:53.687Z,20.94
2019-03-22T00:57:28.748Z,20.88
2019-03-22T00:58:56.975Z,20.70
2019-03-22T01:00:28.626Z,20.12
2019-03-22T01:02:00.220Z,21.50
2019-03-22T01:03:31.884Z,21.96
2019-03-22T01:05:03.637Z,21.83
2019-03-22T01:06:35.367Z,22.34
2019-03-22T01:08:06.976Z,22.04
2019-03-22T01:09:38.654Z,23.17
2019-03-22T01:11:10.306Z,23.58
2019-03-22T01:12:41.936Z,23.48
2019-03-22T01:14:13.547Z,23.02
2019-03-22T01:15:45.147Z,22.49
2019-03-22T01:17:16.775Z,24.04
2019-03-22T01:18:48.400Z,24.08
2019-03-22T01:20:20.173Z,23.92
2019-03-22T01:21:51.861Z,25.19
2019-03-22T01:23:23.397Z,24.96
2019-03-22T01:24:55.097Z,24.22
2019-03-22T01:26:26.763Z,24.84
2019-03-22T01:27:58.380Z,25.36
2019-03-22T01:29:29.963Z,25.33
2019-03-22T01:31:01.635Z,25.73
2019-03-22T01:32:33.329Z,25.57
2019-03-22T01:34:04.866Z,26.47
2019-03-22T01:35:36.462Z,26.18
2019-03-22T01:37:08.082Z,26.12
2019-03-22T01:38:39.700Z,26.72
2019-03-22T01:40:12.159Z,26.70
2019-03-22T01:41:43.798Z,26.86
2019-03-22T01:43:15.379Z,27.07
2019-03-22T01:44:46.994Z,27.26
2019-03-22T01:46:18.582Z,27.01
2019-03-22T01:47:50.212Z,26.49
2019-03-22T01:49:21.794Z,27.13
2019-03-22T01:50:53.533Z,27.55
2019-03-22T01:52:25.117Z,27.67
2019-03-22T01:53:56.745Z,28.52
2019-03-22T01:55:28.329Z,28.59
2019-03-22T01:57:00.031Z,28.35
2019-03-22T01:58:31.776Z,28.72
2019-03-22T02:00:03.385Z,29.33
2019-03-22T02:01:35.051Z,27.31
2019-03-22T02:03:06.644Z,27.30
2019-03-22T02:04:36.795Z,29.64
2019-03-22T02:06:08.385Z,30.02
2019-03-22T02:07:40.005Z,29.75
2019-03-22T02:09:11.644Z,30.25
2019-03-22T02:10:43.210Z,30.08
2019-03-22T02:12:15.086Z,29.95
2019-03-22T02:13:46.710Z,30.46
2019-03-22T02:15:18.743Z,30.32
2019-03-22T02:16:50.335Z,28.27
2019-03-22T02:18:21.945Z,30.80
2019-03-22T02:19:53.554Z,30.18
2019-03-22T02:21:25.177Z,29.39
2019-03-22T02:22:56.807Z,30.79
2019-03-22T02:24:28.387Z,28.36
2019-03-22T02:26:00.030Z,31.13
2019-03-22T02:27:31.657Z,30.06
2019-03-22T02:29:03.259Z,32.43
2019-03-22T02:30:34.860Z,30.73
2019-03-22T02:32:06.534Z,31.38
2019-03-22T02:33:38.158Z,31.61
2019-03-22T02:35:09.916Z,31.89
2019-03-22T02:36:41.502Z,32.06
2019-03-22T02:38:13.101Z,31.70
2019-03-22T02:39:44.869Z,32.18
2019-03-22T02:41:15.785Z,30.93
2019-03-22T02:42:47.420Z,32.28
2019-03-22T02:44:19.037Z,31.06
2019-03-22T02:45:50.646Z,29.20
2019-03-22T02:47:22.272Z,30.57
2019-03-22T02:48:53.969Z,31.42
2019-03-22T02:50:25.540Z,31.33
2019-03-22T02:51:57.184Z,31.60
2019-03-22T02:53:28.770Z,31.67
2019-03-22T02:55:00.653Z,30.25
2019-03-22T02:56:31.511Z,29.67
2019-03-22T02:58:14.203Z,31.16
2019-03-22T02:59:34.511Z,30.71
2019-03-22T03:01:06.094Z,31.10
2019-03-22T03:02:37.731Z,31.45
2019-03-22T03:04:09.360Z,31.59
2019-03-22T03:05:40.947Z,30.98
2019-03-22T03:07:12.574Z,30.57
2019-03-22T03:08:44.143Z,29.61
2019-03-22T03:10:16.494Z,30.84
2019-03-22T03:11:48.066Z,30.36
2019-03-22T03:13:19.795Z,29.34
2019-03-22T03:14:51.429Z,29.75
2019-03-22T03:16:23.199Z,30.30
2019-03-22T03:17:54.788Z,30.05
2019-03-22T03:19:26.420Z,29.98
2019-03-22T03:20:58.031Z,29.92
2019-03-22T03:22:29.721Z,30.37
2019-03-22T03:24:01.314Z,30.30
2019-03-22T03:25:32.952Z,29.95
2019-03-22T03:27:04.643Z,30.14
2019-03-22T03:28:37.462Z,29.56
2019-03-22T03:30:09.039Z,29.46
2019-03-22T03:31:40.865Z,28.99
2019-03-22T03:33:12.444Z,29.67
2019-03-22T03:34:44.132Z,29.57
2019-03-22T03:36:15.827Z,29.45
2019-03-22T03:37:47.458Z,29.63
2019-03-22T03:39:19.044Z,30.14
2019-03-22T03:40:50.646Z,29.54
2019-03-22T03:42:22.529Z,29.29
2019-03-22T03:43:54.139Z,29.38
2019-03-22T03:45:31.758Z,28.92
2019-03-22T03:47:03.480Z,28.36
2019-03-22T03:48:35.080Z,28.59
2019-03-22T03:50:07.934Z,29.35
2019-03-22T03:51:39.559Z,29.07
2019-03-22T03:53:11.296Z,29.04
2019-03-22T03:54:42.882Z,29.52
2019-03-22T03:56:14.461Z,29.55
2019-03-22T03:57:46.100Z,29.42
2019-03-22T03:59:17.735Z,29.04
2019-03-22T04:00:49.303Z,28.80
2019-03-22T04:02:21.011Z,28.83
2019-03-22T04:03:52.572Z,28.74
2019-03-22T04:05:24.190Z,30.09
2019-03-22T04:06:55.863Z,30.00
2019-03-22T04:08:27.523Z,29.96
2019-03-22T04:09:59.164Z,29.68
2019-03-22T04:11:30.809Z,31.24
2019-03-22T04:13:02.540Z,30.53
2019-03-22T04:14:34.121Z,30.17
2019-03-22T04:16:05.694Z,30.40
2019-03-22T04:17:37.283Z,30.37
2019-03-22T04:19:08.922Z,30.69
2019-03-22T04:20:40.613Z,30.11
2019-03-22T04:22:12.214Z,29.63
2019-03-22T04:23:43.805Z,29.99
2019-03-22T04:25:15.449Z,30.05
2019-03-22T04:26:47.049Z,31.17
2019-03-22T04:28:18.669Z,32.29
2019-03-22T04:29:50.232Z,31.37
2019-03-22T04:31:21.912Z,31.91
2019-03-22T04:32:53.536Z,30.54
2019-03-22T04:34:25.165Z,31.00
2019-03-22T04:35:56.741Z,31.74
2019-03-22T04:37:28.333Z,31.79
2019-03-22T04:38:59.966Z,31.27
2019-03-22T04:40:32.236Z,31.17
2019-03-22T04:42:03.895Z,32.21
2019-03-22T04:43:35.473Z,31.43
2019-03-22T04:45:07.773Z,31.92
2019-03-22T04:46:39.378Z,31.12
2019-03-22T04:48:29.016Z,31.39
2019-03-22T04:49:51.116Z,30.79
2019-03-22T04:51:22.759Z,31.60
2019-03-22T04:52:54.378Z,31.39
2019-03-22T04:54:26.035Z,31.75
2019-03-22T04:55:58.738Z,32.35
2019-03-22T04:57:30.395Z,32.56
2019-03-22T04:59:01.989Z,32.88
2019-03-22T05:00:33.643Z,33.08
2019-03-22T05:02:05.263Z,33.45
2019-03-22T05:03:36.895Z,32.72
2019-03-22T05:05:09.041Z,32.44
2019-03-22T05:06:40.917Z,31.13
2019-03-22T05:08:12.525Z,31.37
2019-03-22T05:09:44.219Z,30.38
2019-03-22T05:11:15.959Z,32.63
2019-03-22T05:12:47.562Z,31.29
2019-03-22T05:14:19.472Z,30.63
2019-03-22T05:15:51.083Z,30.30
2019-03-22T05:17:22.708Z,29.83
2019-03-22T05:18:54.303Z,27.98
2019-03-22T05:20:25.932Z,26.87
2019-03-22T05:21:57.667Z,27.67
2019-03-22T05:23:29.291Z,27.47
2019-03-22T05:25:00.934Z,26.90
2019-03-22T05:26:32.517Z,27.87
2019-03-22T05:28:04.277Z,26.37
2019-03-22T05:29:35.865Z,27.26
2019-03-22T05:31:22.454Z,26.84
2019-03-22T05:32:44.285Z,25.77
2019-03-22T05:34:15.894Z,26.88
2019-03-22T05:35:47.517Z,25.77
2019-03-22T05:37:19.198Z,26.06
2019-03-22T05:38:50.797Z,25.37
2019-03-22T05:40:22.455Z,25.52
2019-03-22T05:41:54.038Z,25.33
2019-03-22T05:43:25.816Z,24.95
2019-03-22T05:44:57.426Z,25.61
2019-03-22T05:46:29.055Z,25.58
2019-03-22T05:48:00.672Z,25.25
2019-03-22T05:49:32.246Z,24.56
2019-03-22T05:51:03.832Z,24.91
2019-03-22T05:52:35.512Z,26.86
2019-03-22T05:54:07.186Z,25.24
2019-03-22T05:55:38.807Z,24.05
2019-03-22T05:57:13.533Z,23.57
2019-03-22T05:58:41.557Z,23.83
2019-03-22T06:00:13.143Z,25.52
2019-03-22T06:01:45.465Z,24.44
2019-03-22T06:03:15.955Z,24.48
2019-03-22T06:04:47.539Z,23.91
2019-03-22T06:06:19.193Z,23.36
2019-03-22T06:07:50.769Z,22.78
2019-03-22T06:09:22.450Z,22.66
2019-03-22T06:10:54.054Z,22.74
2019-03-22T06:12:25.682Z,23.29
2019-03-22T06:13:57.283Z,23.74
2019-03-22T06:15:29.239Z,22.73
2019-03-22T06:17:00.870Z,23.36
2019-03-22T06:18:32.490Z,22.78
2019-03-22T06:20:04.104Z,22.51
2019-03-22T06:21:35.758Z,22.68
2019-03-22T06:23:07.366Z,23.12
2019-03-22T06:24:38.988Z,24.28
2019-03-22T06:26:10.903Z,22.98
2019-03-22T06:27:42.531Z,23.63
2019-03-22T06:29:14.160Z,23.15
2019-03-22T06:30:45.783Z,23.74
2019-03-22T06:32:17.418Z,23.58
2019-03-22T06:33:49.032Z,24.66
2019-03-22T06:35:20.657Z,24.56
2019-03-22T06:36:52.621Z,24.69
2019-03-22T06:38:24.396Z,23.66
2019-03-22T06:39:56.097Z,23.76
2019-03-22T06:41:27.827Z,24.19
2019-03-22T06:42:59.391Z,23.92
2019-03-22T06:44:31.032Z,25.17
2019-03-22T06:46:02.662Z,24.94
2019-03-22T06:47:34.288Z,24.33
2019-03-22T06:49:05.878Z,24.04
2019-03-22T06:50:37.474Z,23.42
2019-03-22T06:52:09.179Z,23.91
2019-03-22T06:53:40.798Z,24.76
2019-03-22T06:55:12.412Z,23.31
2019-03-22T06:56:44.004Z,23.96
2019-03-22T06:58:17.179Z,23.54
2019-03-22T06:59:48.813Z,24.75
2019-03-22T07:01:20.391Z,25.08
2019-03-22T07:02:52.044Z,24.33
2019-03-22T07:04:23.764Z,24.96
2019-03-22T07:05:55.350Z,24.55
2019-03-22T07:07:26.947Z,24.55
2019-03-22T07:10:18.788Z,78.18
2019-03-22T07:11:50.336Z,80.87
2019-03-22T07:13:22.143Z,82.20
2019-03-22T07:14:52.203Z,81.53
2019-03-22T07:16:23.743Z,86.22
2019-03-22T07:17:55.330Z,77.62
2019-03-22T07:19:26.866Z,75.67
2019-03-22T07:20:58.448Z,89.74
2019-03-22T07:22:30.290Z,79.45
2019-03-22T07:24:01.900Z,77.78
2019-03-22T07:25:33.430Z,72.28
2019-03-22T07:27:04.994Z,69.05
2019-03-22T07:28:36.674Z,71.43
2019-03-22T07:30:18.029Z,70.68
2019-03-22T07:31:40.126Z,69.16
2019-03-22T07:33:11.654Z,68.22
2019-03-22T07:34:43.194Z,68.69
2019-03-22T07:36:14.907Z,68.48
2019-03-22T07:37:46.426Z,67.29
2019-03-22T07:39:18.063Z,71.73
2019-03-22T07:40:49.583Z,75.16
2019-03-22T07:42:21.149Z,71.44
2019-03-22T07:43:52.674Z,70.75
2019-03-22T07:45:24.196Z,71.03
2019-03-22T07:46:55.830Z,65.88
2019-03-22T07:48:27.342Z,65.46
2019-03-22T07:49:58.942Z,64.47
2019-03-22T07:51:30.519Z,60.03
2019-03-22T07:53:02.216Z,62.96
2019-03-22T07:54:33.790Z,58.83
2019-03-22T07:56:05.858Z,62.19
2019-03-22T07:57:37.429Z,62.74
2019-03-22T07:59:09.988Z,57.57
2019-03-22T08:00:40.169Z,56.30
2019-03-22T08:02:11.691Z,54.45
2019-03-22T08:03:43.223Z,53.27
2019-03-22T08:05:14.852Z,53.60
2019-03-22T08:06:46.437Z,52.83
2019-03-22T08:08:18.347Z,49.60
2019-03-22T08:09:51.233Z,49.37
2019-03-22T08:11:21.025Z,48.86
2019-03-22T08:12:52.596Z,51.31
2019-03-22T08:14:24.307Z,52.57
2019-03-22T08:15:57.600Z,54.76
2019-03-22T08:17:25.398Z,56.90
2019-03-22T08:18:57.322Z,56.17
2019-03-22T08:20:28.916Z,56.83
2019-03-22T08:22:00.440Z,54.06
2019-03-22T08:23:38.020Z,53.67
2019-03-22T08:25:09.545Z,64.99
2019-03-22T08:26:41.250Z,55.92
2019-03-22T08:28:12.706Z,58.47
2019-03-22T08:29:44.333Z,57.50
2019-03-22T08:31:15.857Z,54.97
2019-03-22T08:32:50.232Z,51.50
2019-03-22T08:34:18.595Z,52.61
2019-03-22T08:35:50.145Z,48.69
2019-03-22T08:37:21.744Z,47.09
2019-03-22T08:38:53.254Z,46.47
2019-03-22T08:40:24.819Z,46.85
2019-03-22T08:41:56.334Z,47.44
2019-03-22T08:43:27.849Z,48.09
2019-03-22T08:44:59.738Z,50.40
2019-03-22T08:46:31.300Z,50.27
2019-03-22T08:48:02.909Z,51.18
2019-03-22T08:49:34.484Z,50.26
2019-03-22T08:51:05.914Z,48.36
2019-03-22T08:52:37.516Z,48.89
2019-03-22T08:54:09.084Z,47.99
2019-03-22T08:55:40.948Z,49.52
2019-03-22T08:57:12.482Z,49.48
2019-03-22T08:58:44.020Z,48.74
2019-03-22T09:00:16.839Z,53.79
2019-03-22T09:01:48.377Z,49.97
2019-03-22T09:03:19.976Z,51.54
2019-03-22T09:04:51.595Z,51.09
2019-03-22T09:06:23.471Z,51.05
2019-03-22T09:07:54.973Z,48.48
2019-03-22T09:09:26.645Z,50.81
2019-03-22T09:10:58.197Z,50.14
2019-03-22T09:12:29.722Z,49.15
2019-03-22T09:14:01.339Z,47.49
2019-03-22T09:15:40.975Z,45.61
2019-03-22T09:17:04.011Z,48.07
2019-03-22T09:18:38.834Z,48.20
2019-03-22T09:20:11.007Z,46.61
2019-03-22T09:21:42.523Z,47.81
2019-03-22T09:23:13.993Z,47.87
2019-03-22T09:24:45.650Z,47.83
2019-03-22T09:26:19.922Z,50.47
2019-03-22T09:27:48.321Z,51.35
2019-03-22T09:29:19.904Z,51.40
2019-03-22T09:30:51.498Z,52.31
2019-03-22T09:32:23.123Z,51.75
2019-03-22T09:33:54.697Z,50.77
2019-03-22T09:35:26.182Z,52.50
2019-03-22T09:36:57.715Z,49.63
2019-03-22T09:38:29.249Z,49.42
2019-03-22T09:40:00.875Z,48.89
2019-03-22T09:41:32.436Z,49.12
2019-03-22T09:43:02.436Z,50.83
2019-03-22T09:44:43.181Z,45.83
2019-03-22T09:46:05.150Z,52.63
2019-03-22T09:47:36.626Z,40.46
2019-03-22T09:49:08.213Z,40.00
2019-03-22T09:50:40.080Z,45.46
2019-03-22T09:52:13.214Z,47.78
2019-03-22T09:53:44.759Z,48.05
2019-03-22T09:55:16.340Z,49.67
2019-03-22T09:56:49.558Z,49.18
2019-03-22T09:58:21.214Z,46.72
2019-03-22T09:59:52.890Z,49.92
2019-03-22T10:01:25.897Z,45.45
2019-03-22T10:03:09.101Z,43.34
2019-03-22T10:04:31.843Z,43.19
2019-03-22T10:06:06.144Z,45.27
2019-03-22T10:07:37.756Z,45.06
2019-03-22T10:09:14.802Z,47.47
2019-03-22T10:10:45.007Z,46.34
2019-03-22T10:12:16.861Z,46.12
2019-03-22T10:13:48.551Z,46.47
2019-03-22T10:15:20.047Z,41.71
2019-03-22T10:16:51.745Z,48.76
2019-03-22T10:18:23.288Z,47.36
2019-03-22T10:19:54.808Z,48.12
2019-03-22T10:21:26.435Z,47.27
2019-03-22T10:22:58.196Z,47.01
2019-03-22T10:24:29.744Z,44.97
2019-03-22T10:26:01.222Z,47.45
2019-03-22T10:27:32.809Z,47.57
2019-03-22T10:29:06.780Z,42.78
2019-03-22T10:30:35.607Z,44.27
2019-03-22T10:32:07.209Z,43.05
2019-03-22T10:33:38.789Z,45.94
2019-03-22T10:35:10.907Z,44.55
2019-03-22T10:36:42.355Z,42.42
2019-03-22T10:38:16.429Z,39.60
2019-03-22T10:39:45.055Z,44.84
2019-03-22T10:41:16.588Z,45.06
2019-03-22T10:42:48.174Z,45.43
2019-03-22T10:44:19.703Z,47.43
2019-03-22T10:45:51.251Z,47.68
2019-03-22T10:47:22.786Z,47.47
2019-03-22T10:48:54.296Z,46.83
2019-03-22T10:50:25.850Z,46.25
2019-03-22T10:51:58.306Z,46.88
2019-03-22T10:53:28.552Z,45.86
2019-03-22T10:55:17.239Z,44.41
2019-03-22T10:56:31.872Z,45.14
2019-03-22T10:58:03.506Z,45.17
2019-03-22T10:59:35.214Z,45.18
2019-03-22T11:01:08.225Z,46.08
2019-03-22T11:02:37.941Z,43.83
2019-03-22T11:05:40.642Z,45.64
2019-03-22T11:07:12.254Z,44.89
2019-03-22T11:08:43.906Z,44.16
2019-03-22T11:10:15.863Z,41.72
2019-03-22T11:11:47.464Z,45.01
2019-03-22T11:13:19.295Z,43.24
2019-03-22T11:14:50.834Z,43.62
2019-03-22T11:16:22.401Z,44.80
2019-03-22T11:17:54.525Z,40.06
2019-03-22T11:19:26.077Z,37.06
2019-03-22T11:21:04.730Z,41.72
2019-03-22T11:22:37.267Z,41.19
2019-03-22T11:24:08.871Z,38.13
2019-03-22T11:25:40.529Z,40.78
2019-03-22T11:27:13.707Z,37.44
2019-03-22T11:28:43.447Z,41.55
2019-03-22T11:30:16.484Z,42.41
2019-03-22T11:31:48.046Z,41.47
2019-03-22T11:33:19.575Z,41.37
2019-03-22T11:34:51.238Z,43.25
2019-03-22T11:36:22.603Z,39.54
2019-03-22T11:37:54.180Z,41.92
2019-03-22T11:39:29.014Z,41.41
2019-03-22T11:41:00.542Z,40.09
2019-03-22T11:42:32.168Z,38.97
2019-03-22T11:44:03.724Z,40.46
2019-03-22T11:45:35.466Z,40.69
2019-03-22T11:47:06.995Z,41.04
2019-03-22T11:48:38.498Z,42.31
2019-03-22T11:50:11.097Z,42.82
2019-03-22T11:51:45.827Z,42.40
2019-03-22T11:53:17.409Z,42.92
2019-03-22T11:54:49.039Z,44.01
2019-03-22T11:56:20.564Z,42.68
2019-03-22T11:57:52.131Z,41.24
2019-03-22T11:59:23.703Z,40.54
2019-03-22T12:00:55.326Z,38.87
2019-03-22T12:02:27.038Z,38.78
2019-03-22T12:03:58.485Z,38.20
2019-03-22T12:05:39.851Z,39.64
2019-03-22T12:07:01.134Z,39.94
2019-03-22T12:08:32.652Z,38.50
2019-03-22T12:10:04.266Z,38.56
2019-03-22T12:11:35.813Z,38.66
2019-03-22T12:13:07.395Z,38.33
2019-03-22T12:14:38.850Z,37.58
2019-03-22T12:16:10.400Z,40.39
2019-03-22T12:17:41.984Z,37.94
2019-03-22T12:19:13.561Z,34.95
2019-03-22T12:20:45.127Z,35.33
2019-03-22T12:22:16.710Z,35.59
2019-03-22T12:23:48.227Z,34.66
2019-03-22T12:25:23.384Z,38.47
2019-03-22T12:26:54.928Z,38.63
2019-03-22T12:28:26.509Z,37.09
2019-03-22T12:29:58.041Z,38.69
2019-03-22T12:31:29.617Z,39.56
2019-03-22T12:33:01.148Z,42.46
2019-03-22T12:34:32.701Z,40.81
2019-03-22T12:36:04.234Z,40.84
2019-03-22T12:37:35.834Z,44.23
2019-03-22T12:39:09.345Z,40.84
2019-03-22T12:40:41.005Z,41.55
2019-03-22T12:42:12.494Z,39.81
2019-03-22T12:43:44.102Z,39.88
2019-03-22T12:45:17.362Z,40.73
2019-03-22T12:46:49.309Z,41.52
2019-03-22T12:48:20.031Z,40.04
2019-03-22T12:49:51.540Z,41.03
2019-03-22T12:51:23.116Z,39.99
2019-03-22T12:52:54.634Z,40.57
2019-03-22T12:54:26.218Z,41.01
2019-03-22T12:55:57.787Z,40.83
2019-03-22T12:57:29.454Z,40.82
2019-03-22T12:59:00.991Z,39.72
2019-03-22T13:00:32.530Z,41.87
2019-03-22T13:02:04.162Z,40.80
2019-03-22T13:03:35.696Z,40.39
2019-03-22T13:05:08.306Z,40.94
2019-03-22T13:06:39.880Z,41.10
2019-03-22T13:08:11.463Z,41.54
2019-03-22T13:09:42.946Z,41.82
2019-03-22T13:11:14.470Z,41.39
2019-03-22T13:12:46.079Z,41.13
2019-03-22T13:14:17.621Z,41.09
2019-03-22T13:15:49.289Z,41.88
2019-03-22T13:17:20.944Z,42.26
2019-03-22T13:18:52.452Z,41.06
2019-03-22T13:20:24.090Z,40.61
2019-03-22T13:21:55.784Z,41.68
2019-03-22T13:23:27.330Z,43.62
2019-03-22T13:24:58.872Z,42.49
2019-03-22T13:26:30.403Z,40.76
2019-03-22T13:28:01.945Z,41.70
2019-03-22T13:29:33.499Z,41.17
2019-03-22T13:31:05.095Z,41.73
2019-03-22T13:32:36.781Z,40.93
2019-03-22T13:34:08.311Z,40.77
2019-03-22T13:35:39.867Z,39.77
2019-03-22T13:37:11.400Z,40.91
2019-03-22T13:38:42.954Z,39.18
2019-03-22T13:40:14.512Z,39.13
2019-03-22T13:41:46.116Z,38.66
2019-03-22T13:43:17.673Z,40.37
2019-03-22T13:44:49.227Z,41.76
2019-03-22T13:46:20.856Z,40.41
2019-03-22T13:47:52.370Z,40.76
2019-03-22T13:49:24.083Z,41.03
2019-03-22T13:50:55.758Z,39.79
2019-03-22T13:52:27.268Z,39.78
2019-03-22T13:53:58.791Z,40.12
2019-03-22T13:55:30.286Z,35.20
2019-03-22T13:57:01.834Z,39.59
2019-03-22T13:58:33.365Z,40.10
2019-03-22T14:00:04.956Z,39.47
2019-03-22T14:01:36.467Z,38.92
2019-03-22T14:03:08.019Z,39.35
2019-03-22T14:04:39.592Z,39.59
2019-03-22T14:06:11.151Z,39.63
2019-03-22T14:07:42.646Z,40.23
2019-03-22T14:09:16.460Z,38.66
2019-03-22T14:10:48.174Z,38.68
2019-03-22T14:12:19.811Z,39.86
2019-03-22T14:13:51.350Z,52.58
2019-03-22T14:15:22.906Z,58.72
2019-03-22T14:16:59.624Z,60.33
2019-03-22T14:18:32.539Z,64.55
2019-03-22T14:20:10.945Z,65.31
2019-03-22T14:21:37.783Z,66.85
2019-03-22T14:23:13.937Z,65.35
2019-03-22T14:24:49.199Z,67.00
2019-03-22T14:26:19.442Z,66.93
2019-03-22T14:29:12.220Z,65.82
2019-03-22T14:30:46.541Z,67.23
2019-03-22T14:32:18.120Z,68.29
2019-03-22T14:33:49.673Z,67.17
2019-03-22T14:35:21.332Z,68.49
2019-03-22T14:36:52.959Z,67.62
2019-03-22T14:38:24.490Z,68.37
2019-03-22T14:39:56.150Z,68.61
2019-03-22T14:41:27.748Z,68.96
2019-03-22T14:42:59.254Z,70.57
2019-03-22T14:44:30.817Z,70.52
2019-03-22T14:46:02.431Z,71.97
2019-03-22T14:47:34.012Z,73.14
2019-03-22T14:49:05.536Z,72.40
2019-03-22T14:50:37.162Z,71.52
2019-03-22T14:52:08.692Z,73.14
2019-03-22T14:53:40.354Z,72.83
2019-03-22T14:55:11.901Z,72.73
2019-03-22T14:56:43.496Z,72.41
2019-03-22T14:58:15.035Z,72.70
2019-03-22T14:59:46.553Z,73.56
2019-03-22T15:01:18.127Z,78.69
2019-03-22T15:02:49.778Z,80.14
2019-03-22T15:04:21.403Z,76.29
2019-03-22T15:05:53.263Z,79.38
2019-03-22T15:07:24.932Z,84.48
2019-03-22T15:08:56.435Z,82.04
2019-03-22T15:10:28.016Z,77.86
2019-03-22T15:11:59.615Z,79.80
2019-03-22T15:13:31.163Z,82.07
2019-03-22T15:15:02.673Z,79.69
2019-03-22T15:16:34.177Z,78.74
2019-03-22T15:18:05.782Z,80.27
2019-03-22T15:19:37.331Z,78.32
2019-03-22T15:21:08.890Z,77.21
2019-03-22T15:22:40.586Z,77.19
2019-03-22T15:24:12.114Z,78.41
2019-03-22T15:25:43.632Z,77.42
2019-03-22T15:27:15.187Z,76.72
2019-03-22T15:28:46.722Z,76.88
2019-03-22T15:30:18.259Z,76.96
2019-03-22T15:31:49.787Z,76.36
2019-03-22T15:33:21.473Z,75.03
2019-03-22T15:34:53.042Z,76.44
2019-03-22T15:36:24.628Z,78.87
2019-03-22T15:37:56.205Z,82.64
2019-03-22T15:39:27.864Z,79.74
2019-03-22T15:40:58.827Z,78.64
2019-03-22T15:42:30.366Z,76.29
2019-03-22T15:44:02.081Z,73.55
2019-03-22T15:45:33.580Z,72.79
2019-03-22T15:47:05.064Z,72.19
2019-03-22T15:48:36.576Z,72.38
2019-03-22T15:50:12.198Z,72.31
2019-03-22T15:51:43.740Z,74.06
2019-03-22T15:53:15.382Z,72.69
2019-03-22T15:54:46.832Z,71.94
2019-03-22T15:56:18.336Z,73.31
2019-03-22T15:57:50.019Z,71.86
2019-03-22T15:59:21.400Z,71.95
2019-03-22T16:00:53.107Z,71.41
2019-03-22T16:02:24.452Z,63.30
2019-03-22T16:03:55.990Z,53.92
2019-03-22T16:05:27.510Z,51.14
2019-03-22T16:06:59.018Z,48.03
2019-03-22T16:08:33.128Z,42.08
2019-03-22T16:10:04.660Z,39.47
2019-03-22T16:11:36.205Z,40.46
2019-03-22T16:13:07.710Z,41.95
2019-03-22T16:14:39.372Z,47.07
2019-03-22T16:16:10.853Z,47.93
2019-03-22T16:17:42.381Z,49.74
2019-03-22T16:19:13.931Z,50.67
2019-03-22T16:20:45.462Z,50.33
2019-03-22T16:22:16.969Z,52.13
2019-03-22T16:23:48.464Z,52.68
2019-03-22T16:25:20.121Z,53.13
2019-03-22T16:26:51.693Z,54.09
2019-03-22T16:28:23.250Z,53.32
2019-03-22T16:29:54.792Z,51.81
2019-03-22T16:31:26.347Z,53.54
2019-03-22T16:32:57.867Z,53.69
2019-03-22T16:34:30.843Z,54.46
2019-03-22T16:36:02.625Z,54.86
2019-03-22T16:37:34.237Z,55.77
2019-03-22T16:39:05.870Z,54.63
2019-03-22T16:40:37.367Z,56.83
2019-03-22T16:42:08.904Z,56.21
2019-03-22T16:43:40.450Z,55.40
2019-03-22T16:45:13.258Z,56.83
2019-03-22T16:46:44.770Z,55.86
2019-03-22T16:48:16.292Z,54.47
2019-03-22T16:49:47.889Z,56.77
2019-03-22T16:51:19.491Z,55.52
2019-03-22T16:52:51.371Z,56.23
2019-03-22T16:54:22.964Z,58.48
2019-03-22T16:55:54.743Z,57.85
2019-03-22T16:57:26.293Z,60.35
2019-03-22T16:58:57.755Z,61.14
2019-03-22T17:00:29.290Z,61.54
2019-03-22T17:02:00.832Z,61.41
2019-03-22T17:03:32.344Z,62.26
2019-03-22T17:05:03.893Z,63.76
2019-03-22T17:06:35.609Z,64.49
2019-03-22T17:08:07.173Z,67.46
2019-03-22T17:09:38.702Z,68.83
2019-03-22T17:11:10.241Z,70.92
2019-03-22T17:12:41.896Z,72.10
2019-03-22T17:14:13.451Z,72.85
2019-03-22T17:15:44.930Z,74.77
2019-03-22T17:17:14.986Z,76.78
2019-03-22T17:18:46.505Z,76.11
2019-03-22T17:20:18.029Z,74.85
2019-03-22T17:21:49.596Z,72.80
2019-03-22T17:23:19.646Z,71.97
2019-03-22T17:24:51.226Z,71.50
2019-03-22T17:26:22.714Z,69.34
2019-03-22T17:27:54.243Z,68.70
2019-03-22T17:29:25.810Z,67.43
2019-03-22T17:30:57.305Z,68.86
2019-03-22T17:32:28.816Z,68.77
2019-03-22T17:34:00.460Z,68.50
2019-03-22T17:35:31.885Z,68.25
2019-03-22T17:37:03.448Z,68.93
2019-03-22T17:38:34.968Z,65.64
2019-03-22T17:40:07.216Z,65.48
2019-03-22T17:41:38.706Z,64.34
2019-03-22T17:43:10.222Z,65.37
2019-03-22T17:44:41.734Z,65.02
2019-03-22T17:46:13.266Z,64.73
2019-03-22T17:47:44.856Z,62.65
2019-03-22T17:49:16.382Z,63.05
2019-03-22T17:50:47.888Z,62.36
2019-03-22T17:52:19.406Z,61.41
2019-03-22T17:53:50.956Z,62.78
2019-03-22T17:55:22.583Z,63.22
2019-03-22T17:56:54.130Z,63.03
2019-03-22T17:58:25.661Z,61.35
2019-03-22T17:59:57.183Z,62.52
2019-03-22T18:01:28.743Z,61.90
2019-03-22T18:03:00.285Z,60.26
2019-03-22T18:04:31.785Z,60.59
2019-03-22T18:06:03.262Z,62.07
2019-03-22T18:07:34.876Z,60.59
2019-03-22T18:09:06.435Z,62.54
2019-03-22T18:10:37.928Z,61.55
2019-03-22T18:12:09.462Z,60.09
2019-03-22T18:13:40.976Z,61.21
2019-03-22T18:15:13.284Z,61.25
2019-03-22T18:16:44.822Z,58.77
2019-03-22T18:18:16.385Z,59.41
2019-03-22T18:19:47.894Z,58.64
2019-03-22T18:21:19.516Z,60.55
2019-03-22T18:22:51.021Z,60.19
2019-03-22T18:24:22.526Z,58.38
2019-03-22T18:25:54.093Z,58.78
2019-03-22T18:27:25.687Z,59.10
2019-03-22T18:28:57.299Z,57.17
2019-03-22T18:30:28.789Z,56.14
2019-03-22T18:32:00.276Z,56.44
2019-03-22T18:33:31.788Z,56.60
2019-03-22T18:35:03.353Z,54.22
2019-03-22T18:36:34.867Z,53.86
2019-03-22T18:38:06.601Z,54.73
2019-03-22T18:39:38.114Z,54.19
2019-03-22T18:41:09.645Z,52.72
2019-03-22T18:42:41.175Z,51.93
2019-03-22T18:44:12.696Z,52.87
2019-03-22T18:45:44.278Z,52.29
2019-03-22T18:47:15.837Z,52.43
2019-03-22T18:48:47.387Z,51.45
2019-03-22T18:50:18.926Z,50.85
2019-03-22T18:51:50.513Z,51.14
2019-03-22T18:53:21.994Z,49.08
2019-03-22T18:54:53.523Z,50.38
2019-03-22T18:56:25.016Z,51.23
2019-03-22T18:57:56.551Z,50.49
2019-03-22T18:59:28.097Z,49.94
2019-03-22T19:00:59.612Z,49.77
2019-03-22T19:02:31.117Z,50.53
2019-03-22T19:04:02.664Z,48.52
2019-03-22T19:05:34.172Z,50.47
2019-03-22T19:07:05.711Z,50.33
2019-03-22T19:08:37.268Z,48.81
2019-03-22T19:10:12.785Z,48.47
2019-03-22T19:11:44.336Z,49.34
2019-03-22T19:13:15.926Z,46.94
2019-03-22T19:14:47.461Z,47.96
2019-03-22T19:16:19.050Z,47.83
2019-03-22T19:17:50.593Z,47.81
2019-03-22T19:19:22.078Z,47.06
2019-03-22T19:20:53.748Z,48.60
2019-03-22T19:22:25.310Z,45.63
2019-03-22T19:23:56.870Z,48.74
2019-03-22T19:25:28.387Z,47.07
2019-03-22T19:26:59.891Z,46.78
2019-03-22T19:28:31.397Z,46.36
2019-03-22T19:30:03.011Z,46.98
2019-03-22T19:31:34.497Z,45.84
2019-03-22T19:33:06.016Z,45.18
2019-03-22T19:34:37.596Z,45.50
2019-03-22T19:36:09.137Z,44.94
2019-03-22T19:37:40.651Z,45.01
2019-03-22T19:39:12.171Z,44.93
2019-03-22T19:40:43.671Z,44.60
2019-03-22T19:42:15.177Z,46.14
2019-03-22T19:43:46.933Z,45.74
2019-03-22T19:45:17.323Z,44.21